Time;durP1;ratioP1;P1;durP2;ratioP2;P2;SDS_P1;SDS_P2;PMS_P1;PMS_P2;Temp;Humidity;BMP_temperature;BMP_pressure;BME280_temperature;BME280_humidity;BME280_pressure;Samples;Min_cycle;Max_cycle;Signal;HPM_P1;HPM_P2
2023/11/27 00:02:07;;;;;;;25.45;10.38;;;;;;;;;;5013231;28;20059;-69
2023/11/27 00:04:52;;;;;;;22.67;10.05;;;;;;;;;;5010727;28;20029;-69
2023/11/27 00:07:38;;;;;;;30.48;11.18;;;;;;;;;;5031414;28;20057;-69
2023/11/27 00:10:24;;;;;;;31.60;11.13;;;;;;;;;;5030620;28;20516;-68
2023/11/27 00:13:09;;;;;;;24.42;9.50;;;;;;;;;;5015940;28;20036;-69
2023/11/27 00:15:55;;;;;;;27.20;12.18;;;;;;;;;;5019547;28;20025;-69
2023/11/27 00:18:40;;;;;;;26.92;11.57;;;;;;;;;;5024816;28;20022;-69
2023/11/27 00:21:26;;;;;;;31.17;12.32;;;;;;;;;;5030740;28;20052;-69
2023/11/27 00:24:12;;;;;;;25.58;11.80;;;;;;;;;;5029109;28;20031;-69
2023/11/27 00:26:57;;;;;;;32.72;11.85;;;;;;;;;;5021363;28;20033;-69
2023/11/27 00:29:44;;;;;;;29.27;12.48;;;;;;;;;;5012402;28;20037;-69
2023/11/27 00:32:29;;;;;;;31.17;12.18;;;;;;;;;;5025663;28;20029;-69
2023/11/27 00:35:15;;;;;;;30.92;11.02;;;;;;;;;;5031073;28;20029;-69
2023/11/27 00:38:01;;;;;;;31.02;12.80;;;;;;;;;;5030187;28;20108;-69
2023/11/27 00:40:46;;;;;;;34.72;13.15;;;;;;;;;;5033023;28;20104;-69
2023/11/27 00:43:33;;;;;;;35.67;13.35;;;;;;;;;;5030689;28;20033;-69
2023/11/27 00:46:19;;;;;;;28.60;12.48;;;;;;;;;;5031752;28;20407;-69
2023/11/27 00:49:04;;;;;;;37.55;13.63;;;;;;;;;;5016574;28;20048;-70
2023/11/27 00:51:50;;;;;;;34.38;14.05;;;;;;;;;;5026418;28;20468;-69
2023/11/27 00:54:36;;;;;;;39.03;14.30;;;;;;;;;;5010954;28;20029;-69
2023/11/27 00:57:21;;;;;;;32.65;13.20;;;;;;;;;;5017223;28;20486;-69
2023/11/27 01:00:09;;;;;;;32.25;13.50;;;;;;;;;;5030951;28;20443;-69
2023/11/27 01:02:56;;;;;;;32.60;12.55;;;;;;;;;;5017851;28;20406;-69
2023/11/27 01:05:41;;;;;;;36.17;15.45;;;;;;;;;;5032613;28;20025;-69
2023/11/27 01:08:27;;;;;;;31.67;11.85;;;;;;;;;;5024067;28;20026;-69
2023/11/27 01:11:13;;;;;;;27.27;11.98;;;;;;;;;;5011649;28;20076;-69
2023/11/27 01:13:58;;;;;;;27.63;12.40;;;;;;;;;;5016917;28;20057;-69
2023/11/27 01:16:44;;;;;;;33.75;13.75;;;;;;;;;;5011063;28;20112;-69
2023/11/27 01:19:29;;;;;;;31.13;12.68;;;;;;;;;;5018347;28;20021;-68
2023/11/27 01:22:15;;;;;;;35.38;13.45;;;;;;;;;;5030902;28;20037;-69
2023/11/27 01:25:01;;;;;;;32.30;13.40;;;;;;;;;;5032304;28;20399;-69
2023/11/27 01:27:47;;;;;;;29.33;12.38;;;;;;;;;;5030878;28;20483;-69
2023/11/27 01:30:33;;;;;;;35.75;13.82;;;;;;;;;;5031112;28;20032;-69
2023/11/27 01:33:19;;;;;;;32.25;12.38;;;;;;;;;;5029378;28;20045;-69
2023/11/27 01:36:05;;;;;;;27.60;11.80;;;;;;;;;;5032195;28;20092;-69
2023/11/27 01:38:50;;;;;;;29.63;11.75;;;;;;;;;;5031988;28;20443;-69
2023/11/27 01:41:36;;;;;;;31.80;12.07;;;;;;;;;;5028035;28;20147;-69
2023/11/27 01:44:21;;;;;;;33.92;13.98;;;;;;;;;;5031443;28;20112;-69
2023/11/27 01:47:10;;;;;;;30.27;12.15;;;;;;;;;;5016449;28;20438;-69
2023/11/27 01:49:56;;;;;;;40.22;13.95;;;;;;;;;;5011392;28;20029;-69
2023/11/27 01:52:42;;;;;;;26.33;11.98;;;;;;;;;;5019995;28;20033;-69
2023/11/27 01:55:29;;;;;;;29.05;12.38;;;;;;;;;;5017238;28;20054;-69
2023/11/27 01:58:16;;;;;;;29.38;12.45;;;;;;;;;;5010903;28;20032;-70
2023/11/27 02:01:02;;;;;;;28.70;13.75;;;;;;;;;;4997250;28;20022;-69
2023/11/27 02:03:48;;;;;;;33.50;13.57;;;;;;;;;;5000536;28;20491;-69
2023/11/27 02:06:34;;;;;;;33.88;13.95;;;;;;;;;;4997852;28;20030;-69
2023/11/27 02:09:20;;;;;;;37.80;14.35;;;;;;;;;;5017337;28;20486;-70
2023/11/27 02:12:05;;;;;;;30.75;11.55;;;;;;;;;;5016546;28;20033;-69
2023/11/27 02:14:52;;;;;;;34.30;13.30;;;;;;;;;;5014667;28;20075;-69
2023/11/27 02:17:38;;;;;;;36.90;12.63;;;;;;;;;;5014242;28;20080;-69
2023/11/27 02:20:24;;;;;;;34.08;12.57;;;;;;;;;;5002645;28;20514;-69
2023/11/27 02:23:14;;;;;;;30.23;13.32;;;;;;;;;;5015185;28;20025;-69
2023/11/27 02:26:00;;;;;;;32.65;12.65;;;;;;;;;;5018367;28;20028;-70
2023/11/27 02:28:45;;;;;;;28.85;11.57;;;;;;;;;;5012788;28;20120;-69
2023/11/27 02:31:31;;;;;;;32.53;12.02;;;;;;;;;;5013476;28;20030;-69
2023/11/27 02:34:17;;;;;;;29.00;10.85;;;;;;;;;;5011501;28;20180;-69
2023/11/27 02:37:03;;;;;;;31.80;11.60;;;;;;;;;;5013884;28;20483;-69
2023/11/27 02:39:49;;;;;;;29.05;10.80;;;;;;;;;;5020149;28;20112;-69
2023/11/27 02:42:34;;;;;;;27.92;10.55;;;;;;;;;;5007402;28;20022;-70
2023/11/27 02:45:20;;;;;;;28.73;11.32;;;;;;;;;;5012925;28;20038;-69
2023/11/27 02:48:06;;;;;;;27.85;11.60;;;;;;;;;;4999127;28;20104;-69
2023/11/27 02:50:53;;;;;;;24.13;10.75;;;;;;;;;;5007403;28;20029;-69
2023/11/27 02:53:38;;;;;;;33.13;11.57;;;;;;;;;;5014208;28;20070;-70
2023/11/27 02:56:24;;;;;;;27.80;11.70;;;;;;;;;;5014303;28;20022;-70
2023/11/27 02:59:10;;;;;;;24.30;10.30;;;;;;;;;;5000215;28;20033;-70
2023/11/27 03:01:55;;;;;;;26.50;9.95;;;;;;;;;;5013892;28;20483;-70
2023/11/27 03:04:41;;;;;;;27.48;9.95;;;;;;;;;;5001007;28;20123;-70
2023/11/27 03:07:27;;;;;;;20.95;9.40;;;;;;;;;;5015504;28;20479;-70
2023/11/27 03:10:13;;;;;;;29.60;10.60;;;;;;;;;;4999431;28;20026;-70
2023/11/27 03:12:59;;;;;;;22.40;10.23;;;;;;;;;;5014709;28;20117;-70
2023/11/27 03:15:44;;;;;;;27.08;10.52;;;;;;;;;;5014677;28;20033;-70
2023/11/27 03:18:30;;;;;;;24.75;10.95;;;;;;;;;;5001396;28;20021;-70
2023/11/27 03:21:21;;;;;;;21.48;9.45;;;;;;;;;;5000076;28;20026;-70
2023/11/27 03:24:06;;;;;;;23.75;9.65;;;;;;;;;;5000714;28;20087;-70
2023/11/27 03:26:52;;;;;;;29.35;10.82;;;;;;;;;;5013827;28;20113;-70
2023/11/27 03:29:37;;;;;;;26.08;10.90;;;;;;;;;;5015406;28;20024;-70
2023/11/27 03:32:23;;;;;;;24.63;11.02;;;;;;;;;;5013596;28;20022;-70
2023/11/27 03:35:09;;;;;;;25.90;9.52;;;;;;;;;;5014628;28;20018;-70
2023/11/27 03:37:55;;;;;;;25.88;10.00;;;;;;;;;;5013208;28;20100;-70
2023/11/27 03:40:40;;;;;;;22.33;10.10;;;;;;;;;;5013982;28;20087;-70
2023/11/27 03:43:26;;;;;;;26.70;11.88;;;;;;;;;;5012943;28;20041;-69
2023/11/27 03:46:12;;;;;;;26.13;10.25;;;;;;;;;;5013542;28;20030;-70
2023/11/27 03:48:57;;;;;;;25.83;10.27;;;;;;;;;;5014012;28;20033;-70
2023/11/27 03:51:43;;;;;;;28.27;11.57;;;;;;;;;;5013620;28;20026;-70
2023/11/27 03:54:29;;;;;;;22.13;10.32;;;;;;;;;;5014656;28;20391;-70
2023/11/27 03:57:14;;;;;;;24.88;10.55;;;;;;;;;;5013942;28;20029;-70
2023/11/27 04:00:00;;;;;;;25.13;9.20;;;;;;;;;;5000566;28;20399;-70
2023/11/27 04:02:46;;;;;;;31.65;10.65;;;;;;;;;;4998484;28;20032;-70
2023/11/27 04:05:31;;;;;;;28.25;10.98;;;;;;;;;;5013372;28;20128;-70
2023/11/27 04:08:17;;;;;;;23.40;10.30;;;;;;;;;;4998773;28;20029;-70
2023/11/27 04:11:03;;;;;;;26.42;8.05;;;;;;;;;;5012483;28;20514;-70
2023/11/27 04:13:49;;;;;;;24.55;9.48;;;;;;;;;;5000400;28;20505;-70
2023/11/27 04:16:35;;;;;;;24.13;10.25;;;;;;;;;;4997965;28;20026;-70
2023/11/27 04:19:20;;;;;;;26.30;10.38;;;;;;;;;;4997982;28;20025;-70
2023/11/27 04:22:07;;;;;;;28.60;10.95;;;;;;;;;;5013638;28;20026;-70
2023/11/27 04:24:52;;;;;;;23.58;9.15;;;;;;;;;;5019099;28;20030;-69
2023/11/27 04:27:38;;;;;;;26.98;10.00;;;;;;;;;;5020770;28;20047;-69
2023/11/27 04:30:24;;;;;;;26.50;10.82;;;;;;;;;;5030855;28;20049;-69
2023/11/27 04:33:09;;;;;;;25.98;12.27;;;;;;;;;;5032832;28;20470;-70
2023/11/27 04:35:55;;;;;;;27.80;10.77;;;;;;;;;;5016461;28;20463;-70
2023/11/27 04:38:40;;;;;;;30.15;12.15;;;;;;;;;;5030807;28;20100;-70
2023/11/27 04:41:26;;;;;;;30.85;10.63;;;;;;;;;;5017540;28;20078;-70
2023/11/27 04:44:12;;;;;;;26.38;10.43;;;;;;;;;;5032772;28;20092;-70
2023/11/27 04:46:57;;;;;;;29.48;11.23;;;;;;;;;;5017627;28;20026;-70
2023/11/27 04:49:43;;;;;;;31.30;11.73;;;;;;;;;;5017291;28;20091;-70
2023/11/27 04:52:29;;;;;;;29.90;12.40;;;;;;;;;;5005299;28;20410;-69
2023/11/27 04:55:14;;;;;;;27.90;11.77;;;;;;;;;;5032516;28;20079;-70
2023/11/27 04:58:00;;;;;;;30.77;11.25;;;;;;;;;;5031520;28;20034;-70
2023/11/27 05:00:46;;;;;;;26.70;11.95;;;;;;;;;;5030513;28;20155;-69
2023/11/27 05:03:31;;;;;;;25.48;10.07;;;;;;;;;;5032063;28;20052;-70
2023/11/27 05:06:17;;;;;;;21.27;9.23;;;;;;;;;;5018082;28;20109;-70
2023/11/27 05:09:03;;;;;;;25.88;9.32;;;;;;;;;;5029926;28;20516;-70
2023/11/27 05:11:49;;;;;;;23.58;9.88;;;;;;;;;;5031684;28;20116;-70
2023/11/27 05:14:34;;;;;;;30.05;10.60;;;;;;;;;;5031466;28;20032;-70
2023/11/27 05:17:20;;;;;;;26.60;11.55;;;;;;;;;;5030820;28;20487;-70
2023/11/27 05:20:08;;;;;;;24.73;10.25;;;;;;;;;;5031623;28;20025;-69
2023/11/27 05:22:54;;;;;;;27.40;10.10;;;;;;;;;;5031490;28;20111;-70
2023/11/27 05:25:39;;;;;;;28.65;11.30;;;;;;;;;;5017322;28;20083;-70
2023/11/27 05:28:25;;;;;;;25.67;10.07;;;;;;;;;;5026683;28;20025;-69
2023/11/27 05:31:10;;;;;;;28.55;9.85;;;;;;;;;;4998252;28;20470;-70
2023/11/27 05:33:56;;;;;;;26.58;10.80;;;;;;;;;;5012050;28;20029;-70
2023/11/27 05:36:43;;;;;;;29.98;8.57;;;;;;;;;;5015795;28;20084;-69
2023/11/27 05:39:29;;;;;;;21.20;8.27;;;;;;;;;;4997642;28;20033;-70
2023/11/27 05:42:20;;;;;;;24.73;8.93;;;;;;;;;;4996661;28;20033;-70
2023/11/27 05:45:10;;;;;;;23.90;10.95;;;;;;;;;;5012258;28;20022;-70
2023/11/27 05:47:55;;;;;;;21.30;10.68;;;;;;;;;;4998433;28;20084;-70
2023/11/27 05:50:41;;;;;;;33.60;9.82;;;;;;;;;;5022014;28;20018;-70
2023/11/27 05:53:27;;;;;;;25.15;8.65;;;;;;;;;;5085686;23;20441;-67
2023/11/27 05:56:13;;;;;;;29.05;9.50;;;;;;;;;;5034344;28;20398;-67
2023/11/27 05:58:59;;;;;;;29.95;10.63;;;;;;;;;;5034410;28;20025;-67
2023/11/27 06:01:44;;;;;;;31.25;10.90;;;;;;;;;;5035878;28;20394;-67
2023/11/27 06:04:30;;;;;;;25.38;9.25;;;;;;;;;;5035277;28;20410;-67
2023/11/27 06:07:16;;;;;;;20.48;10.05;;;;;;;;;;5014658;28;20026;-68
2023/11/27 06:10:07;;;;;;;26.75;10.73;;;;;;;;;;5004863;28;20030;-67
2023/11/27 06:12:52;;;;;;;24.55;9.73;;;;;;;;;;4996254;28;20054;-67
2023/11/27 06:15:46;;;;;;;30.73;9.50;;;;;;;;;;5014940;28;20018;-68
2023/11/27 06:18:31;;;;;;;29.83;10.25;;;;;;;;;;4998195;28;20065;-67
2023/11/27 06:21:17;;;;;;;25.35;9.65;;;;;;;;;;4995891;28;20054;-67
2023/11/27 06:24:03;;;;;;;29.85;11.38;;;;;;;;;;5004385;28;20030;-67
2023/11/27 06:26:48;;;;;;;30.05;10.02;;;;;;;;;;4997806;28;20065;-67
2023/11/27 06:29:34;;;;;;;27.27;8.70;;;;;;;;;;4996156;28;20113;-67
2023/11/27 06:32:20;;;;;;;21.70;8.60;;;;;;;;;;5006068;28;20419;-67
2023/11/27 06:35:07;;;;;;;21.25;8.80;;;;;;;;;;4994444;28;20484;-67
2023/11/27 06:37:53;;;;;;;23.33;9.13;;;;;;;;;;5001391;28;20049;-67
2023/11/27 06:40:39;;;;;;;23.67;8.18;;;;;;;;;;5014568;28;20069;-67
2023/11/27 06:43:25;;;;;;;17.25;7.72;;;;;;;;;;5014445;28;20026;-67
2023/11/27 06:46:11;;;;;;;17.73;8.57;;;;;;;;;;5014507;28;20022;-67
2023/11/27 06:48:57;;;;;;;22.55;7.90;;;;;;;;;;4999455;28;20033;-67
2023/11/27 06:51:42;;;;;;;22.73;8.85;;;;;;;;;;5014564;28;20376;-67
2023/11/27 06:54:28;;;;;;;20.42;8.13;;;;;;;;;;5014463;28;20112;-67
2023/11/27 06:57:14;;;;;;;20.63;8.70;;;;;;;;;;5014682;28;20077;-67
2023/11/27 06:59:59;;;;;;;17.30;7.22;;;;;;;;;;5014325;28;20033;-68
2023/11/27 07:02:45;;;;;;;23.83;9.10;;;;;;;;;;5007559;28;20022;-67
2023/11/27 07:05:31;;;;;;;17.80;7.05;;;;;;;;;;5014395;28;20033;-68
2023/11/27 07:08:17;;;;;;;18.92;7.32;;;;;;;;;;5029250;28;20112;-67
2023/11/27 07:11:05;;;;;;;16.40;7.05;;;;;;;;;;5019110;28;20053;-68
2023/11/27 07:13:51;;;;;;;20.02;8.00;;;;;;;;;;5022950;28;20088;-68
2023/11/27 07:16:37;;;;;;;16.90;6.95;;;;;;;;;;5014062;28;20045;-67
2023/11/27 07:19:25;;;;;;;16.65;7.78;;;;;;;;;;5018610;28;20434;-67
2023/11/27 07:22:11;;;;;;;18.52;6.85;;;;;;;;;;4998760;28;20380;-68
2023/11/27 07:24:57;;;;;;;18.48;7.95;;;;;;;;;;5008757;28;20521;-68
2023/11/27 07:27:48;;;;;;;22.05;8.80;;;;;;;;;;5033988;28;20080;-68
2023/11/27 07:30:34;;;;;;;16.35;7.28;;;;;;;;;;5007205;28;20053;-68
2023/11/27 07:33:20;;;;;;;21.98;7.68;;;;;;;;;;4993602;28;20038;-68
2023/11/27 07:36:06;;;;;;;16.27;7.47;;;;;;;;;;5000600;28;20072;-68
2023/11/27 07:38:53;;;;;;;19.73;8.20;;;;;;;;;;5013261;28;20030;-68
2023/11/27 07:41:39;;;;;;;20.27;8.23;;;;;;;;;;5014016;28;20025;-68
2023/11/27 07:44:25;;;;;;;21.83;7.38;;;;;;;;;;5017351;28;20026;-68
2023/11/27 07:47:11;;;;;;;20.17;7.88;;;;;;;;;;5013476;28;20026;-68
2023/11/27 07:49:56;;;;;;;21.05;8.02;;;;;;;;;;4999405;28;20025;-68
2023/11/27 07:52:42;;;;;;;21.10;7.82;;;;;;;;;;5012531;28;20475;-67
2023/11/27 07:55:28;;;;;;;20.02;7.65;;;;;;;;;;5013498;28;20025;-68
2023/11/27 07:58:15;;;;;;;18.45;7.28;;;;;;;;;;5013132;28;20014;-68
2023/11/27 08:01:01;;;;;;;18.00;7.78;;;;;;;;;;4998134;28;20030;-68
2023/11/27 08:03:47;;;;;;;17.40;6.75;;;;;;;;;;5014990;28;20061;-68
2023/11/27 08:06:33;;;;;;;15.50;7.28;;;;;;;;;;5018375;28;20021;-68
2023/11/27 08:09:19;;;;;;;18.23;6.78;;;;;;;;;;5031682;28;20029;-68
2023/11/27 08:12:05;;;;;;;15.80;7.22;;;;;;;;;;4968302;28;20026;-68
2023/11/27 08:14:51;;;;;;;17.08;7.47;;;;;;;;;;4993631;28;20030;-67
2023/11/27 08:17:36;;;;;;;14.93;6.95;;;;;;;;;;5002360;28;20030;-68
2023/11/27 08:20:28;;;;;;;12.05;5.40;;;;;;;;;;4992514;28;20447;-68
2023/11/27 08:23:13;;;;;;;14.45;6.38;;;;;;;;;;5007766;28;20025;-68
2023/11/27 08:25:59;;;;;;;14.18;6.72;;;;;;;;;;5003047;28;20030;-67
2023/11/27 08:28:47;;;;;;;13.98;6.43;;;;;;;;;;4979773;28;20038;-68
2023/11/27 08:31:33;;;;;;;15.55;7.10;;;;;;;;;;4992702;28;20033;-67
2023/11/27 08:34:19;;;;;;;17.63;6.50;;;;;;;;;;5023835;28;20406;-67
2023/11/27 08:37:06;;;;;;;18.33;7.15;;;;;;;;;;5014003;28;20030;-67
2023/11/27 08:39:51;;;;;;;14.55;6.85;;;;;;;;;;5022169;28;20076;-67
2023/11/27 08:42:41;;;;;;;14.85;6.13;;;;;;;;;;5025100;28;20018;-67
2023/11/27 08:45:26;;;;;;;13.55;6.70;;;;;;;;;;5013108;28;20018;-67
2023/11/27 08:48:14;;;;;;;13.32;5.75;;;;;;;;;;5013848;28;20137;-67
2023/11/27 08:50:59;;;;;;;11.88;5.45;;;;;;;;;;5032039;28;20032;-67
2023/11/27 08:53:45;;;;;;;11.65;5.63;;;;;;;;;;5016419;28;20030;-67
2023/11/27 08:56:33;;;;;;;9.80;5.32;;;;;;;;;;5014904;28;20507;-67
2023/11/27 08:59:19;;;;;;;15.73;5.95;;;;;;;;;;5011968;28;20081;-67
2023/11/27 09:02:05;;;;;;;11.27;4.75;;;;;;;;;;5011209;28;20034;-67
2023/11/27 09:04:51;;;;;;;12.27;6.63;;;;;;;;;;5011735;28;20022;-67
2023/11/27 09:07:39;;;;;;;10.85;5.70;;;;;;;;;;5011740;28;20395;-67
2023/11/27 09:10:25;;;;;;;12.75;5.15;;;;;;;;;;4997139;28;20048;-67
2023/11/27 09:13:12;;;;;;;11.90;5.72;;;;;;;;;;5011917;28;20037;-67
2023/11/27 09:15:57;;;;;;;9.73;4.68;;;;;;;;;;4997751;28;20026;-67
2023/11/27 09:18:45;;;;;;;12.32;4.63;;;;;;;;;;5013154;28;20454;-67
2023/11/27 09:21:31;;;;;;;13.25;5.00;;;;;;;;;;5010214;28;20022;-67
2023/11/27 09:24:17;;;;;;;10.63;4.40;;;;;;;;;;5005265;28;20026;-67
2023/11/27 09:27:04;;;;;;;8.57;3.53;;;;;;;;;;5008599;28;20038;-67
2023/11/27 09:29:50;;;;;;;12.43;4.57;;;;;;;;;;4999860;28;20034;-67
2023/11/27 09:32:36;;;;;;;13.23;4.25;;;;;;;;;;5001526;28;20077;-67
2023/11/27 09:35:22;;;;;;;9.07;3.97;;;;;;;;;;4996828;28;20022;-67
2023/11/27 09:38:08;;;;;;;9.15;4.07;;;;;;;;;;5002535;28;20031;-67
2023/11/27 09:40:54;;;;;;;6.28;3.63;;;;;;;;;;5011141;28;20022;-67
2023/11/27 09:43:39;;;;;;;7.80;3.55;;;;;;;;;;5015830;28;20108;-67
2023/11/27 09:46:27;;;;;;;9.07;3.88;;;;;;;;;;4998751;28;20022;-67
2023/11/27 09:49:23;;;;;;;6.72;3.35;;;;;;;;;;4994134;28;20546;-67
2023/11/27 09:52:12;;;;;;;9.68;3.50;;;;;;;;;;4996638;28;20452;-67
2023/11/27 09:55:01;;;;;;;8.43;2.92;;;;;;;;;;4987145;28;20040;-67
2023/11/27 09:57:48;;;;;;;5.15;2.60;;;;;;;;;;5002615;28;20032;-67
2023/11/27 10:00:34;;;;;;;7.22;3.45;;;;;;;;;;5011712;28;20088;-68
2023/11/27 10:03:19;;;;;;;4.38;3.08;;;;;;;;;;4998538;28;20034;-67
2023/11/27 10:06:09;;;;;;;5.72;2.80;;;;;;;;;;4983490;28;20037;-67
2023/11/27 10:09:07;;;;;;;8.40;3.22;;;;;;;;;;4999249;28;20484;-67
2023/11/27 10:12:00;;;;;;;3.42;2.35;;;;;;;;;;4995321;28;20023;-67
2023/11/27 10:14:46;;;;;;;5.75;2.78;;;;;;;;;;4998812;28;20505;-67
2023/11/27 10:17:33;;;;;;;5.68;2.85;;;;;;;;;;5001658;28;20399;-67
2023/11/27 10:20:23;;;;;;;9.23;3.97;;;;;;;;;;4997976;28;20033;-67
2023/11/27 10:23:11;;;;;;;5.80;2.97;;;;;;;;;;4995273;28;20033;-67
2023/11/27 10:26:03;;;;;;;6.13;2.78;;;;;;;;;;5004896;28;20026;-67
2023/11/27 10:28:50;;;;;;;9.63;2.97;;;;;;;;;;5001890;28;20450;-67
2023/11/27 10:31:37;;;;;;;5.88;3.25;;;;;;;;;;5014979;28;20056;-67
2023/11/27 10:34:26;;;;;;;8.30;2.97;;;;;;;;;;5000927;28;20033;-67
2023/11/27 10:37:13;;;;;;;5.93;2.65;;;;;;;;;;5000482;28;20605;-67
2023/11/27 10:39:59;;;;;;;5.03;2.40;;;;;;;;;;4999571;28;20026;-67
2023/11/27 10:42:49;;;;;;;4.38;2.80;;;;;;;;;;5015201;28;20029;-67
2023/11/27 10:45:36;;;;;;;4.95;2.63;;;;;;;;;;5022951;28;20039;-67
2023/11/27 10:48:22;;;;;;;6.00;2.45;;;;;;;;;;5019564;28;20041;-68
2023/11/27 10:51:08;;;;;;;4.82;2.80;;;;;;;;;;5030469;28;20014;-68
2023/11/27 10:53:55;;;;;;;3.67;2.05;;;;;;;;;;4999729;28;20057;-68
2023/11/27 10:56:47;;;;;;;3.35;1.95;;;;;;;;;;4999041;28;20124;-67
2023/11/27 10:59:33;;;;;;;3.85;2.08;;;;;;;;;;5015006;28;20018;-68
2023/11/27 11:02:21;;;;;;;5.22;2.10;;;;;;;;;;5014010;28;20487;-68
2023/11/27 11:05:07;;;;;;;4.63;1.85;;;;;;;;;;4995234;28;20022;-68
2023/11/27 11:07:55;;;;;;;4.03;1.95;;;;;;;;;;4979973;28;20030;-68
2023/11/27 11:10:42;;;;;;;3.70;2.35;;;;;;;;;;5011900;28;20495;-67
2023/11/27 11:13:28;;;;;;;2.75;1.80;;;;;;;;;;5013676;28;20037;-67
2023/11/27 11:16:42;;;;;;;3.90;2.20;;;;;;;;;;5027907;28;20017;-68
2023/11/27 11:19:54;;;;;;;3.00;1.63;;;;;;;;;;5019051;28;20029;-67
2023/11/27 11:22:53;;;;;;;3.65;2.13;;;;;;;;;;4994171;28;20031;-68
2023/11/27 11:26:05;;;;;;;5.35;1.83;;;;;;;;;;4992849;28;20137;-67
2023/11/27 11:29:11;;;;;;;5.82;1.90;;;;;;;;;;4995461;28;20030;-67
2023/11/27 11:32:03;;;;;;;5.95;1.55;;;;;;;;;;5000168;28;20483;-68
2023/11/27 11:34:53;;;;;;;3.15;1.50;;;;;;;;;;4999453;28;20053;-67
2023/11/27 11:37:49;;;;;;;2.85;1.73;;;;;;;;;;5002215;28;20038;-68
2023/11/27 11:40:40;;;;;;;6.05;2.55;;;;;;;;;;4993934;28;20400;-68
2023/11/27 11:43:26;;;;;;;4.20;2.05;;;;;;;;;;4995106;28;20018;-67
2023/11/27 11:46:17;;;;;;;6.15;1.77;;;;;;;;;;4999124;28;20443;-67
2023/11/27 11:49:03;;;;;;;2.72;1.60;;;;;;;;;;5013510;28;20079;-67
2023/11/27 11:52:07;;;;;;;4.40;1.83;;;;;;;;;;5012780;28;20732;-67
2023/11/27 11:54:54;;;;;;;5.82;2.13;;;;;;;;;;5017847;23;20412;-67
2023/11/27 11:57:42;;;;;;;4.50;2.47;;;;;;;;;;4993047;28;20030;-67
2023/11/27 12:00:42;;;;;;;4.57;1.75;;;;;;;;;;4998750;28;20066;-67
2023/11/27 12:03:31;;;;;;;3.45;2.28;;;;;;;;;;4994533;28;20048;-67
2023/11/27 12:06:16;;;;;;;4.03;1.90;;;;;;;;;;4999410;28;20022;-67
2023/11/27 12:09:03;;;;;;;3.85;1.80;;;;;;;;;;5013434;28;20518;-67
2023/11/27 12:11:49;;;;;;;4.78;2.08;;;;;;;;;;5012753;28;20044;-67
2023/11/27 12:14:35;;;;;;;3.83;2.60;;;;;;;;;;4999327;28;20025;-67
2023/11/27 12:17:21;;;;;;;7.43;2.53;;;;;;;;;;5012594;28;20483;-67
2023/11/27 12:20:11;;;;;;;4.82;2.22;;;;;;;;;;4994517;28;20034;-67
2023/11/27 12:22:57;;;;;;;3.58;1.92;;;;;;;;;;4992809;28;20049;-67
2023/11/27 12:25:42;;;;;;;3.67;2.08;;;;;;;;;;4996609;28;20510;-67
2023/11/27 12:28:28;;;;;;;5.60;2.03;;;;;;;;;;5012848;28;20026;-67
2023/11/27 12:31:15;;;;;;;4.00;2.33;;;;;;;;;;5004554;28;20030;-67
2023/11/27 12:34:03;;;;;;;3.05;2.35;;;;;;;;;;4991172;28;20568;-67
2023/11/27 12:36:51;;;;;;;7.40;1.83;;;;;;;;;;5013465;28;20022;-67
2023/11/27 12:39:38;;;;;;;5.07;2.08;;;;;;;;;;5004560;28;20025;-67
2023/11/27 12:42:23;;;;;;;5.28;2.40;;;;;;;;;;5012896;28;20026;-67
2023/11/27 12:45:11;;;;;;;8.07;2.33;;;;;;;;;;5010059;28;20152;-69
2023/11/27 12:47:57;;;;;;;3.63;2.13;;;;;;;;;;5010049;28;20109;-67
2023/11/27 12:50:43;;;;;;;2.85;2.10;;;;;;;;;;4991608;28;20028;-67
2023/11/27 12:53:29;;;;;;;7.82;2.50;;;;;;;;;;5004043;28;20029;-67
2023/11/27 12:56:23;;;;;;;7.57;2.05;;;;;;;;;;5008852;28;20025;-67
2023/11/27 12:59:15;;;;;;;4.00;2.22;;;;;;;;;;5010324;28;20029;-67
2023/11/27 13:02:01;;;;;;;4.35;2.30;;;;;;;;;;5013070;28;20030;-67
2023/11/27 13:04:47;;;;;;;5.50;2.00;;;;;;;;;;5012680;28;20044;-67
2023/11/27 13:07:32;;;;;;;5.63;2.17;;;;;;;;;;5012604;28;20025;-67
2023/11/27 13:10:18;;;;;;;5.55;2.05;;;;;;;;;;5012611;28;20415;-67
2023/11/27 13:13:05;;;;;;;5.32;2.47;;;;;;;;;;5009232;28;20029;-67
2023/11/27 13:15:53;;;;;;;8.68;2.30;;;;;;;;;;5008465;28;20022;-67
2023/11/27 13:18:38;;;;;;;2.75;2.28;;;;;;;;;;5010117;28;20099;-67
2023/11/27 13:21:32;;;;;;;6.18;2.92;;;;;;;;;;4995223;28;20114;-66
2023/11/27 13:24:17;;;;;;;5.28;2.42;;;;;;;;;;5002390;28;20080;-67
2023/11/27 13:27:07;;;;;;;4.78;2.03;;;;;;;;;;4992331;28;20518;-67
2023/11/27 13:29:54;;;;;;;7.28;2.28;;;;;;;;;;4994640;28;20491;-67
2023/11/27 13:32:39;;;;;;;12.25;3.20;;;;;;;;;;4992917;28;20118;-67
2023/11/27 13:35:32;;;;;;;4.65;2.78;;;;;;;;;;4993412;28;20018;-67
2023/11/27 13:38:17;;;;;;;4.45;2.75;;;;;;;;;;4979335;28;20034;-67
2023/11/27 13:41:03;;;;;;;4.90;2.72;;;;;;;;;;4996226;28;20525;-67
2023/11/27 13:43:49;;;;;;;4.07;2.85;;;;;;;;;;4992984;28;20031;-67
2023/11/27 13:46:35;;;;;;;6.70;2.72;;;;;;;;;;4997489;28;20025;-67
2023/11/27 13:49:25;;;;;;;3.83;2.25;;;;;;;;;;5012772;28;20029;-67
2023/11/27 13:52:14;;;;;;;4.05;2.22;;;;;;;;;;4996257;28;20065;-68
2023/11/27 13:55:00;;;;;;;4.13;2.22;;;;;;;;;;4991285;28;20499;-66
2023/11/27 13:57:48;;;;;;;6.47;2.65;;;;;;;;;;5008483;28;20030;-67
2023/11/27 14:00:42;;;;;;;2.95;1.90;;;;;;;;;;5011907;28;20437;-68
2023/11/27 14:03:30;;;;;;;4.07;2.25;;;;;;;;;;5011205;28;20022;-68
2023/11/27 14:06:16;;;;;;;8.75;3.05;;;;;;;;;;5009400;28;20034;-68
2023/11/27 14:09:20;;;;;;;4.20;2.60;;;;;;;;;;4997917;28;20108;-68
2023/11/27 14:12:10;;;;;;;4.72;2.08;;;;;;;;;;5012560;28;20025;-68
2023/11/27 14:22:55;;;;;;;3.72;2.05;;;;;;;;;;5001919;28;20026;-68
2023/11/27 14:24:14;;;;;;;2.70;2.15;;;;;;;;;;5003885;28;20030;-67
2023/11/27 14:27:19;;;;;;;3.65;1.98;;;;;;;;;;4996495;28;20076;-67
2023/11/27 14:30:12;;;;;;;7.93;1.75;;;;;;;;;;5012762;28;20164;-68
2023/11/27 14:32:58;;;;;;;9.73;3.15;;;;;;;;;;5012003;28;20037;-70
2023/11/27 14:35:44;;;;;;;4.10;2.55;;;;;;;;;;5016210;28;20368;-68
2023/11/27 14:38:30;;;;;;;4.25;1.90;;;;;;;;;;5013065;28;20037;-67
2023/11/27 14:41:17;;;;;;;2.45;2.05;;;;;;;;;;5012152;28;20061;-67
2023/11/27 14:44:02;;;;;;;4.82;1.80;;;;;;;;;;5015453;28;20017;-67
2023/11/27 14:46:51;;;;;;;4.35;1.42;;;;;;;;;;4999920;28;20038;-67
2023/11/27 14:49:36;;;;;;;4.00;1.65;;;;;;;;;;4980759;28;20022;-68
2023/11/27 14:52:22;;;;;;;1.95;1.55;;;;;;;;;;4999217;28;20049;-68
2023/11/27 14:55:12;;;;;;;2.33;1.42;;;;;;;;;;4994962;28;20034;-68
2023/11/27 14:57:57;;;;;;;3.10;1.60;;;;;;;;;;5003727;28;20454;-67
2023/11/27 15:00:51;;;;;;;3.30;1.63;;;;;;;;;;4994767;28;20034;-68
2023/11/27 15:03:43;;;;;;;1.70;1.38;;;;;;;;;;4989028;28;20053;-70
2023/11/27 15:06:34;;;;;;;2.15;1.27;;;;;;;;;;5014998;28;20025;-68
2023/11/27 15:12:06;;;;;;;4.05;1.55;;;;;;;;;;5014624;28;20113;-68
2023/11/27 15:14:51;;;;;;;3.15;2.35;;;;;;;;;;5009777;28;20030;-68
2023/11/27 15:17:37;;;;;;;2.08;1.67;;;;;;;;;;4994580;28;20104;-68
2023/11/27 15:20:23;;;;;;;1.73;1.33;;;;;;;;;;4994203;28;20022;-67
2023/11/27 15:23:08;;;;;;;2.38;1.48;;;;;;;;;;5010353;28;20029;-68
2023/11/27 15:25:54;;;;;;;1.85;1.60;;;;;;;;;;4993215;28;20045;-68
2023/11/27 15:28:41;;;;;;;3.08;1.60;;;;;;;;;;4995053;28;20026;-68
2023/11/27 15:31:31;;;;;;;3.67;1.50;;;;;;;;;;4985445;28;20088;-70
2023/11/27 15:34:17;;;;;;;4.03;1.52;;;;;;;;;;4994360;28;20026;-70
2023/11/27 15:37:03;;;;;;;5.47;1.40;;;;;;;;;;5000927;28;20449;-68
2023/11/27 15:39:49;;;;;;;60.67;20.02;;;;;;;;;;4994323;28;20484;-68
2023/11/27 15:42:35;;;;;;;6.75;5.38;;;;;;;;;;5002922;28;20026;-70
2023/11/27 15:45:21;;;;;;;14.73;7.38;;;;;;;;;;5013474;28;20529;-68
2023/11/27 15:48:10;;;;;;;15.02;8.40;;;;;;;;;;5013563;28;20022;-67
2023/11/27 15:50:56;;;;;;;8.77;4.35;;;;;;;;;;5000197;28;20045;-70
2023/11/27 15:53:41;;;;;;;4.95;3.38;;;;;;;;;;5013993;28;20033;-70
2023/11/27 15:56:27;;;;;;;6.90;3.60;;;;;;;;;;4996639;28;20023;-68
2023/11/27 15:59:14;;;;;;;2.75;2.17;;;;;;;;;;4979007;28;20030;-67
2023/11/27 16:01:59;;;;;;;4.45;2.83;;;;;;;;;;5006291;28;20030;-70
2023/11/27 16:04:46;;;;;;;3.50;2.42;;;;;;;;;;5013155;28;20085;-70
2023/11/27 16:07:31;;;;;;;3.55;2.03;;;;;;;;;;5013887;28;20053;-68
2023/11/27 16:10:21;;;;;;;1.95;1.42;;;;;;;;;;5013346;28;20033;-70
2023/11/27 16:13:08;;;;;;;2.65;2.25;;;;;;;;;;5013886;28;20447;-68
2023/11/27 16:15:54;;;;;;;2.28;1.45;;;;;;;;;;5013646;28;20032;-68
2023/11/27 16:18:44;;;;;;;2.78;2.13;;;;;;;;;;5013354;28;20499;-68
2023/11/27 16:21:31;;;;;;;5.95;2.20;;;;;;;;;;5014092;28;20022;-68
2023/11/27 16:24:16;;;;;;;4.20;2.28;;;;;;;;;;4999548;28;20017;-70
2023/11/27 16:27:02;;;;;;;4.78;2.13;;;;;;;;;;5013787;28;20037;-68
2023/11/27 16:29:48;;;;;;;4.63;2.35;;;;;;;;;;5011052;28;20450;-67
2023/11/27 16:32:34;;;;;;;7.22;2.90;;;;;;;;;;4993882;28;20030;-67
2023/11/27 16:35:22;;;;;;;2.92;1.95;;;;;;;;;;4980705;28;20463;-67
2023/11/27 16:38:08;;;;;;;5.03;2.40;;;;;;;;;;5008449;28;20025;-69